Terminal Aerodrome Forecast
Issued by NWS Corpus Christi, TX

Home | Current Version | Previous Version | Text Only | Print | Product List | Glossary On
Versions: 1 2 3 4 5 6 7 8 9 10 11 12 13 14 15 16
000
FTUS44 KCRP 201443 AAB
TAFVCT
TAF AMD
KVCT 201443Z 2015/2112 10005KT P6SM SCT015 BKN080
      TEMPO 2015/2016 3SM BR BKN009
     FM201700 14009KT P6SM FEW035
     FM210700 14005KT 4SM BR BKN018=

USA.gov is the U.S. government's official web portal to all federal, state and local government web resources and services.